Latest Weather Observations for Nullarbor

IDS60801

Issued at 7:05 pm CST Monday 15 September 2014 (issued every 30 minutes, with the page automatically refreshed every 10 minutes)

About weather observations | Map of weather stations | Latest weather observations for SA | Other Formats
Station Details ID: 018106 Name: NULLARBOR Lat: -31.45 Lon: 130.90 Height: 64.0 m
Data from the previous 72 hours. | See also: Recent months at Nullarbor
Date/Time
CST
Temp
°C
App
Temp
°C
Dew
Point
Rel
Hum
%
Delta-T
°C
Wind Press
QNH
hPa
Press
MSL
hPa
Rain
since 9 am
mm
Dir
 
Spd
km/h
Gust
km/h
Spd
kts
Gust
kts
15/07:00pm 13.3 11.0 9.0 75 2.2 SSE 11 13 6 7 1022.1 1022.1 0.0
15/06:30pm 14.8 11.5 9.4 70 2.8 SSE 17 20 9 11 1021.8 1021.8 0.0
15/06:00pm 15.8 12.9 9.7 67 3.2 S 15 20 8 11 1021.8 1021.8 0.0
15/05:30pm 16.1 12.1 8.3 60 4.0 SSE 19 22 10 12 1021.8 1021.8 0.0
15/05:00pm 16.1 12.2 9.3 64 3.5 S 20 28 11 15 1021.8 1021.8 0.0
15/04:30pm 16.4 12.0 9.1 62 3.8 S 22 28 12 15 1021.6 1021.6 0.0
15/04:00pm 16.5 12.4 8.5 59 4.1 S 20 28 11 15 1021.6 1021.6 0.0
15/03:30pm 17.2 13.3 9.4 60 4.1 S 20 30 11 16 1021.7 1021.7 0.0
15/03:00pm 17.6 13.4 9.8 60 4.1 S 22 30 12 16 1021.7 1021.7 0.0
15/02:30pm 17.5 13.3 9.7 60 4.1 S 22 33 12 18 1021.6 1021.6 0.0
15/02:00pm 17.9 13.3 9.5 58 4.4 S 24 35 13 19 1021.8 1021.8 0.0
15/01:30pm 18.6 14.9 9.4 55 4.8 SSE 19 30 10 16 1021.8 1021.8 0.0
15/01:00pm 18.9 15.3 9.7 55 4.9 S 19 30 10 16 1022.2 1022.2 0.0
15/12:30pm 17.9 14.2 9.3 57 4.5 S 19 26 10 14 1022.5 1022.5 0.0
15/12:00pm 18.5 15.1 10.6 60 4.2 S 19 26 10 14 1022.9 1022.9 0.0
15/11:30am 18.3 14.8 10.2 59 4.3 S 19 24 10 13 1023.1 1023.0 0.0
15/11:00am 17.7 14.0 9.6 59 4.3 S 19 28 10 15 1023.3 1023.2 0.0
15/10:30am 16.9 13.0 9.3 61 3.9 SSW 20 28 11 15 1023.3 1023.2 0.0
15/10:00am 16.7 13.1 9.9 64 3.6 S 19 26 10 14 1023.2 1023.1 0.0
15/09:30am 16.1 12.4 9.5 65 3.4 S 19 24 10 13 1023.1 1023.0 0.0
15/09:00am 16.1 11.9 9.8 66 3.3 S 22 28 12 15 1022.6 1022.6 0.0
15/08:30am 15.5 12.8 10.5 72 2.6 S 15 20 8 11 1022.4 1022.4 0.0
15/08:00am 14.8 12.1 10.4 75 2.3 SSW 15 20 8 11 1022.1 1022.1 0.0
15/07:30am 13.9 10.8 10.3 79 1.9 S 17 20 9 11 1022.0 1022.0 0.0
15/07:00am 13.0 9.8 10.0 82 1.5 S 17 19 9 10 1021.7 1021.7 0.0
15/06:30am 12.3 10.6 10.0 86 1.2 SSW 9 11 5 6 1021.5 1021.5 0.0
15/06:00am 12.4 10.7 10.0 85 1.2 SW 9 13 5 7 1021.2 1021.2 0.0
15/05:30am 12.6 10.9 10.0 84 1.3 SSW 9 11 5 6 1021.0 1021.0 0.0
15/05:00am 12.6 10.6 10.0 84 1.3 SW 11 13 6 7 1020.8 1020.8 0.0
15/04:30am 13.2 10.8 10.2 82 1.6 SW 13 15 7 8 1020.5 1020.5 0.0
15/04:00am 13.4 10.7 10.2 81 1.7 SW 15 19 8 10 1020.2 1020.2 0.0
15/03:30am 14.2 10.6 10.0 76 2.2 SSW 19 28 10 15 1020.1 1020.1 0.0
15/03:00am 14.6 11.1 10.2 75 2.3 SSW 19 22 10 12 1020.1 1020.1 0.0
15/02:30am 14.8 11.6 11.4 80 1.8 SSW 19 22 10 12 1020.2 1020.2 0.0
15/02:00am 14.7 11.6 11.7 82 1.6 SSW 19 24 10 13 1020.2 1020.2 0.0
15/01:30am 14.9 11.8 11.7 81 1.7 SSW 19 24 10 13 1020.3 1020.3 0.0
15/01:00am 15.1 11.9 11.1 77 2.1 SSW 19 26 10 14 1020.4 1020.4 0.0
15/12:30am 15.2 11.9 9.6 69 2.9 SW 17 22 9 12 1020.3 1020.3 0.0
15/12:00am 15.1 11.2 9.5 69 2.9 SW 20 26 11 14 1020.3 1020.3 0.0
 
Date/Time
CST
Temp
°C
App
Temp
°C
Dew
Point
Rel
Hum
%
Delta-T
°C
Wind Press
QNH
hPa
Press
MSL
hPa
Rain
since 9 am
mm
Dir
 
Spd
km/h
Gust
km/h
Spd
kts
Gust
kts
14/11:30pm 15.2 11.0 11.0 76 2.2 SW 24 32 13 17 1020.4 1020.4 0.0
14/11:00pm 14.7 11.9 12.6 87 1.2 SW 19 28 10 15 1020.4 1020.4 0.0
14/10:30pm 13.6 10.8 11.5 87 1.1 SW 17 20 9 11 1020.6 1020.6 0.0
14/10:00pm 14.5 11.3 11.8 84 1.5 SW 20 28 11 15 1020.6 1020.6 0.0
14/09:30pm 15.3 12.0 12.8 85 1.4 WSW 22 30 12 16 1020.4 1020.4 0.0
14/09:00pm 15.1 12.2 12.8 86 1.3 WSW 20 28 11 15 1020.3 1020.3 0.0
14/08:30pm 14.8 10.6 12.5 86 1.3 WSW 26 33 14 18 1020.1 1020.1 0.0
14/08:00pm 14.6 11.1 12.3 86 1.3 WSW 22 32 12 17 1019.8 1019.8 0.0
14/07:30pm 14.9 10.2 12.0 83 1.6 WSW 28 35 15 19 1019.3 1019.3 0.0
14/07:00pm 15.3 9.9 12.1 81 1.7 WSW 32 44 17 24 1018.9 1018.9 0.0
14/06:30pm 15.9 9.3 11.5 75 2.4 WSW 37 48 20 26 1018.6 1018.6 0.0
14/06:00pm 16.6 9.6 11.3 71 2.9 WSW 39 48 21 26 1018.3 1018.3 0.0
14/05:30pm 17.5 9.8 10.1 62 3.9 WSW 41 52 22 28 1017.7 1017.7 0.0
14/05:00pm 18.2 11.2 10.1 59 4.3 WSW 37 48 20 26 1017.6 1017.6 0.0
14/04:30pm 18.9 11.3 9.1 53 5.1 WSW 39 50 21 27 1017.1 1017.1 0.0
14/04:00pm 19.6 10.9 7.7 46 6.1 WSW 43 56 23 30 1017.0 1017.0 0.0
14/03:30pm 20.0 12.2 8.4 47 6.0 WSW 39 54 21 29 1017.0 1017.0 0.0
14/03:00pm 19.8 11.5 7.9 46 6.1 WSW 41 56 22 30 1017.0 1017.0 0.0
14/02:30pm 20.2 12.5 7.2 43 6.6 W 37 54 20 29 1016.8 1016.8 0.0
14/02:20pm 20.0 12.0 7.4 44 6.5 WSW 39 57 21 31 1016.8 1016.8 0.0
14/02:04pm 20.0 12.6 6.7 42 6.7 WSW 35 50 19 27 1016.7 1016.7 0.0
14/02:00pm 20.1 12.8 7.1 43 6.6 WSW 35 48 19 26 1016.8 1016.8 0.0
14/01:53pm 19.9 11.9 7.6 45 6.3 WSW 39 54 21 29 1016.7 1016.7 0.0
14/01:30pm 20.9 13.6 7.2 41 7.0 WSW 35 52 19 28 1016.8 1016.8 0.0
14/01:00pm 20.1 12.8 7.1 43 6.6 WSW 35 46 19 25 1016.7 1016.7 0.0
14/12:30pm 19.9 11.9 4.0 35 7.6 WSW 35 46 19 25 1016.8 1016.8 0.0
14/12:00pm 19.6 12.2 6.7 43 6.5 WSW 35 48 19 26 1017.2 1017.2 0.0
14/11:30am 19.6 12.7 8.9 50 5.6 W 35 46 19 25 1017.1 1017.1 0.0
14/11:00am 18.9 12.9 10.7 59 4.4 WSW 33 44 18 24 1017.0 1017.0 0.0
14/10:30am 18.3 12.4 10.4 60 4.2 WSW 32 44 17 24 1017.1 1017.1 0.0
14/10:00am 17.6 11.8 11.4 67 3.4 WSW 33 44 18 24 1017.0 1017.0 0.0
14/09:30am 16.9 10.8 11.8 72 2.8 WSW 35 48 19 26 1016.8 1016.8 0.0
14/09:00am 16.5 10.6 12.5 77 2.2 WSW 35 46 19 25 1016.5 1016.5 0.0
14/08:47am 16.2 10.7 12.4 78 2.1 WSW 33 44 18 24 1016.4 1016.4 0.0
14/08:30am 16.2 10.8 12.9 81 1.8 WSW 33 44 18 24 1016.1 1016.1 0.0
14/08:00am 15.3 10.3 13.5 89 1.0 WSW 32 43 17 23 1016.0 1015.9 0.0
14/07:48am 15.0 10.0 13.5 91 0.8 WSW 32 50 17 27 1015.8 1015.7 0.0
14/07:40am 14.9 11.2 13.8 93 0.6 WSW 26 35 14 19 1015.8 1015.7 0.0
14/07:30am 14.6 11.1 13.5 93 0.6 WSW 24 32 13 17 1015.6 1015.5 0.0
14/07:27am 14.5 11.0 13.4 93 0.6 WSW 24 32 13 17 1015.6 1015.5 0.0
14/07:00am 14.1 11.0 13.3 95 0.4 WSW 22 30 12 16 1015.3 1015.2 0.0
14/06:30am 14.0 11.4 13.2 95 0.4 WSW 19 24 10 13 1014.9 1014.8 0.0
14/06:03am 13.5 11.1 12.6 94 0.5 W 17 20 9 11 1014.7 1014.6 0.0
14/06:00am 13.5 11.1 12.6 94 0.5 W 17 20 9 11 1014.6 1014.5 0.0
14/05:30am 12.6 10.1 11.2 91 0.7 W 15 19 8 10 1014.2 1014.1 0.0
14/05:00am 12.4 10.1 10.3 87 1.1 W 13 17 7 9 1014.0 1013.9 0.0
14/04:30am 11.8 9.1 9.0 83 1.4 WNW 13 17 7 9 1013.7 1013.6 0.0
14/04:00am 11.6 7.9 6.5 71 2.4 WNW 15 17 8 9 1013.4 1013.3 0.0
14/03:30am 12.6 8.9 6.2 65 3.0 NW 15 17 8 9 1013.4 1013.3 0.0
14/03:00am 13.7 10.1 4.8 55 4.1 WNW 13 17 7 9 1013.4 1013.3 0.0
14/02:30am 14.9 9.9 -1.2 33 6.6 WNW 15 20 8 11 1013.5 1013.4 0.0
14/02:00am 16.5 10.5 -3.0 26 7.9 NNW 19 20 10 11 1013.5 1013.4 0.0
14/01:30am 15.5 10.0 -2.4 29 7.2 N 17 20 9 11 1013.3 1013.2 0.0
14/01:00am 18.4 12.8 -3.1 23 8.8 NW 17 26 9 14 1013.6 1013.5 0.0
14/12:45am 20.1 12.1 -2.3 22 9.5 NNW 30 46 16 25 1013.4 1013.3 0.0
14/12:30am 17.5 11.5 -1.2 28 7.9 NNE 20 24 11 13 1012.6 1012.5 0.0
14/12:00am 18.8 13.0 -0.1 28 8.3 NE 20 26 11 14 1012.8 1012.7 0.0
 
Date/Time
CST
Temp
°C
App
Temp
°C
Dew
Point
Rel
Hum
%
Delta-T
°C
Wind Press
QNH
hPa
Press
MSL
hPa
Rain
since 9 am
mm
Dir
 
Spd
km/h
Gust
km/h
Spd
kts
Gust
kts
13/11:30pm 18.9 13.3 1.4 31 7.9 NE 20 24 11 13 1012.9 1012.8 0.0
13/11:00pm 19.2 12.8 1.2 30 8.1 ENE 24 28 13 15 1013.1 1013.0 0.0
13/10:30pm 18.0 12.2 -0.3 29 7.9 ENE 20 22 11 12 1013.5 1013.4 0.0
13/10:00pm 19.3 13.6 0.4 28 8.4 ENE 20 26 11 14 1013.8 1013.7 0.0
13/09:30pm 17.8 13.3 4.4 41 6.4 E 17 19 9 10 1014.0 1013.9 0.0
13/09:00pm 18.6 14.5 6.1 44 6.2 ENE 17 20 9 11 1014.1 1014.0 0.0
13/08:30pm 20.0 15.4 6.7 42 6.7 E 20 24 11 13 1014.3 1014.2 0.0
13/08:00pm 20.9 15.3 7.2 41 7.0 E 26 33 14 18 1014.3 1014.2 0.0
13/07:30pm 20.7 15.6 7.7 43 6.7 ESE 24 32 13 17 1015.0 1014.9 0.0
13/07:00pm 19.8 15.1 9.1 50 5.7 ESE 24 33 13 18 1015.0 1014.9 0.0
13/06:30pm 19.4 14.9 9.9 54 5.1 ESE 24 32 13 17 1015.0 1014.9 0.0
13/06:00pm 21.2 17.1 10.1 49 6.0 ESE 22 32 12 17 1015.0 1014.9 0.0
13/05:30pm 23.6 18.0 8.8 39 7.9 SE 28 35 15 19 1014.7 1014.6 0.0
13/05:15pm 25.7 21.8 7.3 31 9.7 NE 17 22 9 12 1015.0 1014.9 0.0
13/05:00pm 31.0 25.3 -4.1 10 15.8 NNE 17 22 9 12 1014.7 1014.6 0.0
13/04:30pm 30.9 24.4 -5.6 9 16.0 NNE 20 30 11 16 1014.8 1014.7 0.0
13/04:00pm 32.1 26.7 -4.7 9 16.5 N 15 24 8 13 1014.8 1014.7 0.0
13/03:30pm 32.2 25.8 -4.6 9 16.5 N 20 32 11 17 1015.0 1014.9 0.0
13/03:00pm 31.9 25.7 -4.9 9 16.4 N 19 33 10 18 1015.4 1015.3 0.0
13/02:30pm 32.4 25.1 -3.1 10 16.4 N 26 35 14 19 1015.8 1015.7 0.0
13/02:00pm 31.9 24.7 -2.2 11 15.9 N 26 37 14 20 1016.2 1016.2 0.0
13/01:30pm 31.3 23.6 -2.6 11 15.6 N 28 43 15 23 1016.3 1016.3 0.0
13/01:00pm 30.2 21.9 -0.2 14 14.5 N 33 46 18 25 1016.7 1016.7 0.0
13/12:30pm 29.9 21.5 1.4 16 13.9 N 35 50 19 27 1017.3 1017.3 0.0
13/12:00pm 28.4 19.8 2.6 19 12.8 N 37 48 20 26 1018.2 1018.2 0.0
13/11:30am 27.6 19.5 3.3 21 12.1 N 35 50 19 27 1018.9 1018.9 0.0
13/11:00am 26.1 18.5 4.0 24 11.1 N 33 44 18 24 1019.5 1019.5 0.0
13/10:30am 24.5 17.3 4.8 28 9.9 N 32 43 17 23 1019.8 1019.8 0.0
13/10:00am 22.2 16.3 5.6 34 8.3 NNE 26 33 14 18 1020.3 1020.3 0.0
13/09:30am 18.9 13.6 7.0 46 6.0 NE 24 32 13 17 1020.8 1020.8 0.0
13/09:00am 16.8 11.7 7.7 55 4.6 NE 24 32 13 17 1021.2 1021.2 0.0
13/08:30am 15.3 11.1 8.1 62 3.6 ENE 20 28 11 15 1021.7 1021.7 0.0
13/08:00am 13.5 9.9 9.7 78 2.0 E 19 22 10 12 1021.8 1021.8 0.0
13/07:30am 10.4 7.0 9.2 92 0.6 E 17 19 9 10 1022.0 1022.0 0.0
13/07:00am 8.3 4.6 8.0 98 0.1 SE 17 19 9 10 1022.1 1022.1 0.0
13/06:30am 7.8 4.3 7.2 96 0.3 SE 15 17 8 9 1022.2 1022.2 0.0
13/06:00am 8.3 4.6 7.9 97 0.2 ESE 17 17 9 9 1022.0 1022.0 0.0
13/05:30am 7.0 3.3 6.3 95 0.3 ESE 15 17 8 9 1022.0 1022.0 0.0
13/05:00am 7.3 3.6 6.4 94 0.4 SE 15 17 8 9 1021.8 1021.8 0.0
13/04:30am 6.9 3.5 6.0 94 0.4 SE 13 17 7 9 1021.7 1021.7 0.0
13/04:00am 7.1 3.0 6.2 94 0.4 ESE 17 17 9 9 1021.7 1021.7 0.0
13/03:30am 6.7 3.3 5.7 93 0.4 SE 13 15 7 8 1021.8 1021.8 0.0
13/03:00am 7.4 3.6 6.0 91 0.6 SE 15 15 8 8 1022.1 1022.1 0.0
13/02:30am 8.3 5.0 6.6 89 0.8 ESE 13 15 7 8 1022.3 1022.3 0.0
13/02:00am 9.0 5.5 7.3 89 0.8 ESE 15 17 8 9 1022.4 1022.4 0.0
13/01:30am 8.9 5.8 7.4 90 0.7 E 13 17 7 9 1022.6 1022.6 0.0
13/01:00am 9.7 6.7 7.8 88 0.9 ESE 13 15 7 8 1022.8 1022.8 0.0
13/12:30am 10.3 7.0 8.2 87 1.0 E 15 19 8 10 1023.1 1023.0 0.0
13/12:00am 11.0 7.5 8.6 85 1.2 E 17 22 9 12 1023.5 1023.4 0.0
 
Date/Time
CST
Temp
°C
App
Temp
°C
Dew
Point
Rel
Hum
%
Delta-T
°C
Wind Press
QNH
hPa
Press
MSL
hPa
Rain
since 9 am
mm
Dir
 
Spd
km/h
Gust
km/h
Spd
kts
Gust
kts
12/11:30pm 11.5 8.0 8.9 84 1.3 E 17 22 9 12 1023.6 1023.5 0.0
12/11:00pm 12.2 8.5 9.6 84 1.3 E 19 24 10 13 1024.0 1023.9 0.0
12/10:30pm 12.8 9.1 10.3 85 1.3 ESE 20 24 11 13 1024.1 1024.0 0.0
12/10:00pm 12.8 9.8 10.7 87 1.1 ESE 17 22 9 12 1024.2 1024.1 0.0
12/09:30pm 13.1 9.5 10.6 85 1.3 ESE 20 26 11 14 1024.3 1024.2 0.0
12/09:00pm 13.2 9.6 10.4 83 1.5 SE 20 24 11 13 1024.3 1024.2 0.0
12/08:30pm 13.4 9.4 10.6 83 1.5 SE 22 28 12 15 1024.3 1024.2 0.0
12/08:00pm 13.5 9.5 10.5 82 1.6 SE 22 28 12 15 1024.2 1024.1 0.0
12/07:30pm 13.8 9.7 10.0 78 2.0 SE 22 28 12 15 1024.0 1023.9 0.0

Other Formats:

Comma delimited format used in spreadsheet applications
http://www.bom.gov.au/fwo/IDS60801/IDS60801.94651.axf

JavaScript Object Notation format (JSON) in row-major order
http://www.bom.gov.au/fwo/IDS60801/IDS60801.94651.json